Time;durP1;ratioP1;P1;durP2;ratioP2;P2;SDS_P1;SDS_P2;PMS_P1;PMS_P2;Temp;Humidity;BMP_temperature;BMP_pressure;BME280_temperature;BME280_humidity;BME280_pressure;Samples;Min_cycle;Max_cycle;Signal;HPM_P1;HPM_P2
2022/08/02 00:13:19;;;;;;;0.77;0.70;;;23.10;99.90;;;;;;5358728;22;20673;-96
2022/08/02 00:15:46;;;;;;;1.03;0.63;;;23.10;99.90;;;;;;5102259;28;20700;-96
2022/08/02 00:18:21;;;;;;;0.60;0.60;;;23.10;99.90;;;;;;5102250;28;20621;-96
2022/08/02 01:06:50;;;;;;;1.30;1.20;;;22.90;99.90;;;;;;5017428;28;20683;-96
2022/08/02 01:09:18;;;;;;;0.80;0.80;;;22.90;99.90;;;;;;5014567;28;20652;-96
2022/08/02 01:11:54;;;;;;;0.93;0.93;;;22.90;99.90;;;;;;5017583;28;20659;-96
2022/08/02 01:29:53;;;;;;;1.83;1.10;;;22.90;99.90;;;;;;5091498;27;24565;-96
2022/08/02 01:32:54;;;;;;;2.30;1.03;;;22.70;99.90;;;;;;5091608;28;20636;-96
2022/08/02 01:35:28;;;;;;;1.90;0.93;;;22.80;99.90;;;;;;5092161;28;20612;-96
2022/08/02 01:38:02;;;;;;;2.50;0.90;;;22.80;99.90;;;;;;5085507;28;20662;-96
2022/08/02 01:40:44;;;;;;;1.10;0.93;;;22.80;99.90;;;;;;5074097;28;20622;-96
2022/08/02 01:43:22;;;;;;;1.23;1.13;;;22.80;99.90;;;;;;5092320;28;20638;-96
2022/08/02 01:45:54;;;;;;;1.30;1.20;;;22.80;99.90;;;;;;5093902;28;20645;-95
2022/08/02 01:48:23;;;;;;;1.17;1.07;;;22.80;99.90;;;;;;5089957;28;20641;-96
2022/08/02 01:50:56;;;;;;;1.13;1.00;;;22.80;99.90;;;;;;5094244;28;20638;-96
2022/08/02 01:53:25;;;;;;;1.47;1.37;;;22.80;99.90;;;;;;5093943;28;20625;-96
2022/08/02 01:56:05;;;;;;;1.40;1.30;;;22.90;99.90;;;;;;5094383;28;20659;-96
2022/08/02 01:58:36;;;;;;;1.37;1.27;;;22.80;99.90;;;;;;5083945;28;20657;-96
2022/08/02 02:01:07;;;;;;;1.87;1.23;;;22.80;99.90;;;;;;5060960;28;20710;-95
2022/08/02 02:03:35;;;;;;;2.10;1.63;;;22.80;99.90;;;;;;5064864;28;20622;-96
2022/08/02 02:06:05;;;;;;;1.57;1.47;;;22.70;99.90;;;;;;5060083;28;20683;-96
2022/08/02 02:08:37;;;;;;;2.00;1.60;;;22.70;99.90;;;;;;5057880;28;20690;-96
2022/08/02 02:11:06;;;;;;;1.33;1.10;;;22.70;99.90;;;;;;5059154;28;21172;-96
2022/08/02 02:13:35;;;;;;;1.37;1.27;;;22.70;99.90;;;;;;5076977;28;21233;-96
2022/08/02 02:16:06;;;;;;;1.50;1.40;;;22.70;99.90;;;;;;5070980;28;20625;-96
2022/08/02 02:18:52;;;;;;;1.47;1.17;;;22.70;99.90;;;;;;5060265;28;20650;-96
2022/08/02 02:21:19;;;;;;;1.43;1.33;;;22.70;99.90;;;;;;5076470;28;20637;-96
2022/08/02 02:23:47;;;;;;;1.40;1.30;;;22.70;99.90;;;;;;5074269;28;20700;-96
2022/08/02 02:29:16;;;;;;;1.57;1.47;;;22.60;99.90;;;;;;5085992;28;20654;-96
2022/08/02 02:32:00;;;;;;;1.37;1.27;;;22.70;99.90;;;;;;5072679;28;20602;-96
2022/08/02 02:34:37;;;;;;;1.30;1.20;;;22.60;99.90;;;;;;5044766;28;20671;-95
2022/08/02 02:37:08;;;;;;;1.50;1.40;;;22.60;99.90;;;;;;5042987;28;20664;-96
2022/08/02 02:39:38;;;;;;;1.17;1.10;;;22.60;99.90;;;;;;5038608;28;21292;-94
2022/08/02 02:42:10;;;;;;;1.30;1.13;;;22.60;99.90;;;;;;5044835;28;20756;-96
2022/08/02 02:44:39;;;;;;;2.77;1.03;;;22.60;99.90;;;;;;5043725;28;21048;-95
2022/08/02 02:47:12;;;;;;;1.93;1.00;;;22.60;99.90;;;;;;5044602;28;20657;-96
2022/08/02 02:49:40;;;;;;;1.00;1.00;;;22.60;99.90;;;;;;5045743;28;20623;-95
2022/08/02 02:52:10;;;;;;;6.90;1.43;;;22.70;99.90;;;;;;5037181;28;20653;-95
2022/08/02 02:54:38;;;;;;;1.40;1.30;;;22.60;99.90;;;;;;5024677;28;20618;-94
2022/08/02 02:57:07;;;;;;;1.50;1.23;;;22.60;99.90;;;;;;5043496;28;21221;-96
2022/08/02 02:59:35;;;;;;;1.73;1.10;;;22.60;99.90;;;;;;5029173;28;20692;-95
2022/08/02 03:02:11;;;;;;;1.13;1.10;;;22.60;99.90;;;;;;5034215;28;20762;-95
2022/08/02 03:04:41;;;;;;;1.53;1.43;;;22.60;99.90;;;;;;5028576;28;20637;-95
2022/08/02 03:07:10;;;;;;;2.47;1.70;;;22.60;99.90;;;;;;5037387;28;20725;-95
2022/08/02 03:09:37;;;;;;;1.13;1.13;;;22.60;99.90;;;;;;5038273;28;20623;-95
2022/08/02 03:12:07;;;;;;;1.40;1.30;;;22.60;99.90;;;;;;5034251;28;21056;-96
2022/08/02 03:14:35;;;;;;;2.53;1.00;;;22.60;99.90;;;;;;5031812;28;21167;-96
2022/08/02 03:17:04;;;;;;;2.33;1.40;;;22.60;99.90;;;;;;5041968;28;20669;-96
2022/08/02 03:19:33;;;;;;;4.23;1.20;;;22.60;99.90;;;;;;5053292;28;20697;-95
2022/08/02 03:22:01;;;;;;;1.30;1.20;;;22.60;99.90;;;;;;5063089;28;20650;-96
2022/08/02 03:24:46;;;;;;;5.13;1.83;;;22.50;99.90;;;;;;5047813;28;20738;-95
2022/08/02 03:27:12;;;;;;;1.23;1.13;;;22.50;99.90;;;;;;5036176;28;20733;-94
2022/08/02 03:29:44;;;;;;;2.83;1.63;;;22.50;99.90;;;;;;5044580;28;20670;-95
2022/08/02 03:32:12;;;;;;;2.30;1.90;;;22.50;99.90;;;;;;5039980;28;20662;-96
2022/08/02 03:34:41;;;;;;;1.93;1.20;;;22.50;99.90;;;;;;5040636;28;20619;-95
2022/08/02 03:37:10;;;;;;;5.50;1.60;;;22.50;99.90;;;;;;5052530;28;20630;-96
2022/08/02 03:42:20;;;;;;;1.10;1.00;;;22.40;99.90;;;;;;5034557;28;20649;-95
2022/08/02 03:44:49;;;;;;;2.07;1.20;;;22.50;99.90;;;;;;5056171;28;20633;-96
2022/08/02 03:47:25;;;;;;;1.60;1.50;;;22.40;99.90;;;;;;5057985;28;20641;-96
2022/08/02 03:50:11;;;;;;;3.73;1.10;;;22.40;99.90;;;;;;5054486;28;20706;-96
2022/08/02 03:52:43;;;;;;;1.50;1.40;;;22.40;99.90;;;;;;5050974;28;20669;-95
2022/08/02 03:55:13;;;;;;;1.50;1.40;;;22.40;99.90;;;;;;5065228;28;20639;-95
2022/08/02 03:57:44;;;;;;;2.67;1.40;;;22.40;99.90;;;;;;5063395;28;20650;-96
2022/08/02 04:00:23;;;;;;;4.33;1.33;;;22.40;99.90;;;;;;5060802;28;20643;-96
2022/08/02 04:03:07;;;;;;;1.77;1.43;;;22.30;99.90;;;;;;5071474;28;20650;-95
2022/08/02 04:05:36;;;;;;;1.80;1.70;;;22.30;99.90;;;;;;5060771;28;20649;-92
2022/08/02 04:08:02;;;;;;;1.70;1.60;;;22.30;99.90;;;;;;5039264;28;20632;-93
2022/08/02 04:10:30;;;;;;;2.50;1.90;;;22.30;99.90;;;;;;5054907;28;20774;-93
2022/08/02 04:12:57;;;;;;;1.83;1.50;;;22.40;99.90;;;;;;5058967;28;20655;-93
2022/08/02 04:15:25;;;;;;;1.70;1.60;;;22.40;99.90;;;;;;5039027;28;20610;-93
2022/08/02 04:17:56;;;;;;;2.10;1.40;;;22.40;99.90;;;;;;5044799;28;20768;-93
2022/08/02 04:20:29;;;;;;;3.13;1.40;;;22.40;99.90;;;;;;5037263;28;20593;-94
2022/08/02 04:23:02;;;;;;;1.90;1.80;;;22.40;99.90;;;;;;5035033;28;21272;-94
2022/08/02 04:25:32;;;;;;;2.70;2.03;;;22.40;99.90;;;;;;5021918;28;20612;-93
2022/08/02 04:28:00;;;;;;;2.93;2.73;;;22.40;99.90;;;;;;5033395;28;20674;-93
2022/08/02 04:30:28;;;;;;;3.40;3.20;;;22.40;99.90;;;;;;5036334;28;20634;-93
2022/08/02 04:32:55;;;;;;;3.53;2.90;;;22.40;99.90;;;;;;5043558;28;20663;-92
2022/08/02 04:35:23;;;;;;;2.33;1.97;;;22.50;99.90;;;;;;5041177;28;20638;-93
2022/08/02 04:37:50;;;;;;;1.97;1.60;;;22.30;99.90;;;;;;5037089;28;20661;-93
2022/08/02 04:40:18;;;;;;;1.73;1.63;;;22.40;99.90;;;;;;5038683;28;20835;-94
2022/08/02 04:42:46;;;;;;;4.00;1.60;;;22.40;99.90;;;;;;5041966;28;20684;-93
2022/08/02 04:45:13;;;;;;;1.70;1.50;;;22.30;99.90;;;;;;5036415;28;20729;-92
2022/08/02 04:47:40;;;;;;;1.40;1.30;;;22.40;99.90;;;;;;5040422;28;20638;-94
2022/08/02 04:50:08;;;;;;;1.97;1.87;;;22.40;99.90;;;;;;5040727;28;20666;-93
2022/08/02 04:52:35;;;;;;;1.30;1.20;;;22.40;99.90;;;;;;5031105;28;20666;-94
2022/08/02 04:55:02;;;;;;;1.87;1.30;;;22.40;99.90;;;;;;5033204;28;20635;-93
2022/08/02 05:00:15;;;;;;;3.57;1.83;;;22.40;99.90;;;;;;5052252;28;20626;-94
2022/08/02 05:02:43;;;;;;;1.53;1.40;;;22.40;99.90;;;;;;5044594;28;20732;-93
2022/08/02 05:05:10;;;;;;;1.60;1.50;;;22.40;99.90;;;;;;5038439;28;20761;-93
2022/08/02 05:07:37;;;;;;;1.63;1.53;;;22.30;99.90;;;;;;5031492;28;20670;-94
2022/08/02 05:10:05;;;;;;;2.00;1.53;;;22.30;99.90;;;;;;5045753;28;20734;-94
2022/08/02 05:12:33;;;;;;;4.50;1.67;;;22.40;99.90;;;;;;5040733;28;20665;-94
2022/08/02 05:15:00;;;;;;;2.20;1.33;;;22.40;99.90;;;;;;5039241;28;20630;-94
2022/08/02 05:17:28;;;;;;;1.97;1.40;;;22.40;99.90;;;;;;5033568;28;20687;-93
2022/08/02 05:19:54;;;;;;;3.47;1.80;;;22.50;99.90;;;;;;5042559;28;20694;-93
2022/08/02 05:22:21;;;;;;;1.73;1.63;;;22.50;99.90;;;;;;5034866;28;20691;-93
2022/08/02 05:24:48;;;;;;;2.03;1.83;;;22.50;99.90;;;;;;5049707;28;20727;-93
2022/08/02 05:27:15;;;;;;;1.77;1.67;;;22.30;99.90;;;;;;5049045;28;20636;-94
2022/08/02 05:29:44;;;;;;;2.47;1.90;;;22.40;99.90;;;;;;5049912;28;20591;-93
2022/08/02 05:32:11;;;;;;;3.00;1.97;;;22.40;99.90;;;;;;5046187;28;20676;-93
2022/08/02 05:34:38;;;;;;;2.00;1.90;;;22.40;99.90;;;;;;5045112;28;20639;-93
2022/08/02 05:37:05;;;;;;;2.30;1.73;;;22.40;99.90;;;;;;5044328;28;20628;-94
2022/08/02 05:39:32;;;;;;;2.47;2.33;;;22.40;99.90;;;;;;5054267;28;20647;-94
2022/08/02 05:44:58;;;;;;;3.10;2.70;;;22.20;99.90;;;;;;5016418;28;20632;-82
2022/08/02 05:47:25;;;;;;;3.93;3.27;;;21.60;99.90;;;;;;5011046;28;20627;-82
2022/08/02 05:49:54;;;;;;;3.83;2.73;;;21.10;99.90;;;;;;5012074;28;20615;-81
2022/08/02 05:52:27;;;;;;;3.90;3.00;;;20.80;99.90;;;;;;5017297;28;21332;-82
2022/08/02 05:55:03;;;;;;;3.37;3.07;;;20.60;99.90;;;;;;5011174;28;20634;-82
2022/08/02 05:57:41;;;;;;;2.60;2.40;;;20.50;99.90;;;;;;5007275;28;20634;-81
2022/08/02 06:00:12;;;;;;;6.30;2.63;;;20.30;99.90;;;;;;5014103;28;20675;-82
2022/08/02 06:02:53;;;;;;;2.70;2.50;;;20.20;99.90;;;;;;5010493;28;20707;-81
2022/08/02 06:05:21;;;;;;;4.00;3.17;;;20.20;99.90;;;;;;5017588;28;20614;-81
2022/08/02 06:07:49;;;;;;;3.47;2.43;;;20.10;99.90;;;;;;5020608;28;20646;-81
2022/08/02 06:10:20;;;;;;;3.10;2.80;;;20.00;99.90;;;;;;5023927;28;20655;-83
2022/08/02 06:12:50;;;;;;;4.43;3.03;;;19.70;99.90;;;;;;5024036;28;20696;-82
2022/08/02 06:15:20;;;;;;;2.80;2.40;;;19.70;99.90;;;;;;5023732;28;20638;-82
2022/08/02 06:17:47;;;;;;;2.80;2.60;;;19.70;99.90;;;;;;5015296;28;20628;-82
2022/08/02 06:20:15;;;;;;;5.43;3.37;;;19.70;99.90;;;;;;5016323;28;20683;-81
2022/08/02 06:22:44;;;;;;;3.80;3.27;;;19.80;99.90;;;;;;5019514;28;20686;-82
2022/08/02 06:25:11;;;;;;;3.23;2.90;;;19.90;99.90;;;;;;5017719;28;20641;-82
2022/08/02 06:27:39;;;;;;;3.67;3.23;;;20.00;99.90;;;;;;5014214;28;20647;-82
2022/08/02 06:30:08;;;;;;;3.30;3.00;;;19.90;99.90;;;;;;5017085;28;20654;-82
2022/08/02 06:32:37;;;;;;;7.70;3.80;;;19.90;99.90;;;;;;5022449;28;20618;-82
2022/08/02 06:35:05;;;;;;;4.33;3.20;;;19.80;99.90;;;;;;5018366;28;20653;-82
2022/08/02 06:37:38;;;;;;;3.23;2.90;;;19.90;99.90;;;;;;5020309;28;20630;-82
2022/08/02 06:40:13;;;;;;;2.97;2.77;;;20.00;99.90;;;;;;5014458;28;21348;-81
2022/08/02 06:42:48;;;;;;;7.30;3.47;;;20.20;99.90;;;;;;5011616;28;20631;-82
2022/08/02 06:45:15;;;;;;;5.03;3.30;;;20.20;99.90;;;;;;5016955;28;20686;-81
2022/08/02 06:47:44;;;;;;;3.23;2.90;;;20.30;99.90;;;;;;5018264;28;20981;-82
2022/08/02 06:50:11;;;;;;;3.90;3.60;;;20.40;99.90;;;;;;5016920;28;21203;-81
2022/08/02 06:52:41;;;;;;;7.50;3.80;;;20.30;99.90;;;;;;5013684;28;20607;-81
2022/08/02 06:55:09;;;;;;;4.50;3.53;;;20.30;99.90;;;;;;5022089;28;20636;-81
2022/08/02 06:57:36;;;;;;;4.37;3.53;;;20.40;99.90;;;;;;5019353;28;20655;-81
2022/08/02 07:00:06;;;;;;;4.07;3.57;;;20.60;99.90;;;;;;5015758;28;21299;-81
2022/08/02 07:02:32;;;;;;;5.80;3.27;;;20.60;99.90;;;;;;5013594;28;21143;-81
2022/08/02 07:05:01;;;;;;;3.83;3.53;;;20.70;99.90;;;;;;5013400;28;20631;-81
2022/08/02 07:07:28;;;;;;;4.10;3.63;;;20.80;99.90;;;;;;5017815;28;20626;-82
2022/08/02 07:09:55;;;;;;;7.47;3.30;;;20.70;99.90;;;;;;5017827;28;20659;-82
2022/08/02 07:12:22;;;;;;;4.13;2.90;;;20.90;99.90;;;;;;5014731;28;20638;-82
2022/08/02 07:14:49;;;;;;;6.23;3.77;;;21.00;99.90;;;;;;5016300;28;20624;-82
2022/08/02 07:17:15;;;;;;;3.27;3.07;;;21.00;99.90;;;;;;5016433;28;20638;-81
2022/08/02 07:19:42;;;;;;;4.73;3.33;;;20.90;99.90;;;;;;5024831;28;20679;-81
2022/08/02 07:22:11;;;;;;;3.90;2.50;;;20.90;99.90;;;;;;5017673;28;20636;-81
2022/08/02 07:24:38;;;;;;;3.47;3.17;;;21.00;99.90;;;;;;5012700;28;20628;-81
2022/08/02 07:27:05;;;;;;;4.53;3.87;;;21.10;99.90;;;;;;5021426;28;20639;-81
2022/08/02 07:29:32;;;;;;;5.17;3.90;;;21.30;99.90;;;;;;5013835;28;20662;-81
2022/08/02 07:31:59;;;;;;;6.10;3.40;;;21.40;99.90;;;;;;5016143;28;20679;-82
2022/08/02 07:34:26;;;;;;;5.10;3.80;;;21.50;99.90;;;;;;5013162;28;21166;-81
2022/08/02 07:36:53;;;;;;;5.57;3.80;;;21.70;99.90;;;;;;5014596;28;20645;-82
2022/08/02 07:39:21;;;;;;;6.13;4.10;;;21.70;99.90;;;;;;5014918;28;20789;-82
2022/08/02 07:41:50;;;;;;;4.10;3.37;;;21.90;99.90;;;;;;5013774;28;20627;-82
2022/08/02 07:44:17;;;;;;;4.77;4.37;;;22.00;99.90;;;;;;5012794;28;21171;-81
2022/08/02 07:46:44;;;;;;;9.53;3.50;;;22.20;99.90;;;;;;5013876;28;20700;-83
2022/08/02 07:49:12;;;;;;;3.90;3.60;;;22.30;99.90;;;;;;5016479;28;20668;-82
2022/08/02 07:51:39;;;;;;;4.83;3.53;;;22.40;99.90;;;;;;5012521;28;21462;-82
2022/08/02 07:54:06;;;;;;;4.37;4.00;;;22.60;99.90;;;;;;5013571;28;20627;-83
2022/08/02 07:56:34;;;;;;;4.30;3.90;;;22.70;99.90;;;;;;5017999;28;21006;-82
2022/08/02 07:59:01;;;;;;;5.47;3.93;;;22.70;99.90;;;;;;5016713;28;20674;-81
2022/08/02 08:01:28;;;;;;;5.20;4.70;;;22.90;99.90;;;;;;5016249;28;20639;-81
2022/08/02 08:03:55;;;;;;;5.43;4.93;;;23.00;99.90;;;;;;5013785;28;20754;-81
2022/08/02 08:06:22;;;;;;;4.17;3.80;;;23.10;99.90;;;;;;5017368;28;20634;-81
2022/08/02 08:08:49;;;;;;;5.17;3.83;;;23.20;99.90;;;;;;5018317;28;20738;-81
2022/08/02 08:11:16;;;;;;;5.47;4.80;;;23.30;99.90;;;;;;5015446;28;20639;-81
2022/08/02 08:13:44;;;;;;;4.20;3.90;;;23.30;99.90;;;;;;5013622;28;20940;-81
2022/08/02 08:16:11;;;;;;;4.70;4.23;;;23.40;99.90;;;;;;5016706;28;21041;-81
2022/08/02 08:18:38;;;;;;;5.43;5.03;;;23.50;99.90;;;;;;5010431;28;20763;-81
2022/08/02 08:21:06;;;;;;;5.27;4.77;;;23.50;99.90;;;;;;5010794;28;21266;-81
2022/08/02 08:23:34;;;;;;;6.07;5.57;;;23.50;99.90;;;;;;5011832;28;20680;-81
2022/08/02 08:26:01;;;;;;;4.90;4.57;;;23.60;99.90;;;;;;5013066;28;20647;-81
2022/08/02 08:28:27;;;;;;;5.70;5.30;;;23.70;99.90;;;;;;5019803;28;20711;-81
2022/08/02 08:30:56;;;;;;;4.60;4.00;;;23.80;99.90;;;;;;5013023;28;20649;-81
2022/08/02 08:33:23;;;;;;;6.73;4.90;;;23.90;99.90;;;;;;5019551;28;20631;-81
2022/08/02 08:35:51;;;;;;;5.53;5.10;;;24.00;99.90;;;;;;5014308;28;21191;-81
2022/08/02 08:38:17;;;;;;;7.67;5.93;;;24.00;99.90;;;;;;5014763;28;20639;-80
2022/08/02 08:40:44;;;;;;;4.73;4.33;;;24.00;99.90;;;;;;5013447;28;20671;-81
2022/08/02 08:43:13;;;;;;;10.53;4.77;;;24.00;99.90;;;;;;5014184;28;20632;-82
2022/08/02 08:45:43;;;;;;;6.33;5.23;;;24.10;99.90;;;;;;5012402;28;20643;-81
2022/08/02 08:48:14;;;;;;;6.10;5.30;;;24.10;99.90;;;;;;5012725;28;21033;-81
2022/08/02 08:50:49;;;;;;;7.20;5.30;;;24.10;99.90;;;;;;5009737;28;21785;-81
2022/08/02 08:53:17;;;;;;;5.90;5.40;;;24.10;99.90;;;;;;5013036;28;20635;-81
2022/08/02 08:55:45;;;;;;;5.90;5.50;;;24.20;99.90;;;;;;5016330;28;21014;-81
2022/08/02 08:58:12;;;;;;;6.60;5.53;;;24.30;99.90;;;;;;5014272;28;20662;-81
2022/08/02 09:00:40;;;;;;;9.57;5.47;;;24.40;99.90;;;;;;5016738;28;20675;-81
2022/08/02 09:03:08;;;;;;;5.10;4.60;;;24.50;99.90;;;;;;5013023;28;20747;-81
2022/08/02 09:05:37;;;;;;;5.73;5.13;;;24.50;99.90;;;;;;5018652;28;20644;-81
2022/08/02 09:08:05;;;;;;;5.73;4.43;;;24.70;99.90;;;;;;5009481;28;20639;-81
2022/08/02 09:10:34;;;;;;;5.80;5.30;;;24.80;99.90;;;;;;5013617;28;21542;-81
2022/08/02 09:13:10;;;;;;;7.13;5.37;;;24.70;99.90;;;;;;5014603;28;20635;-81
2022/08/02 09:15:38;;;;;;;8.90;5.30;;;24.80;99.90;;;;;;5014258;28;21195;-81
2022/08/02 09:18:06;;;;;;;6.03;5.53;;;24.90;99.90;;;;;;5014941;28;20719;-81
2022/08/02 09:20:34;;;;;;;5.57;4.93;;;25.00;99.90;;;;;;5012254;28;20697;-81
2022/08/02 09:23:10;;;;;;;5.30;4.90;;;25.10;99.90;;;;;;5011706;28;20662;-81
2022/08/02 09:25:38;;;;;;;5.43;4.93;;;25.10;99.90;;;;;;5019860;28;20635;-81
2022/08/02 09:28:05;;;;;;;6.13;5.17;;;25.10;99.90;;;;;;5016118;28;20775;-81
2022/08/02 09:30:42;;;;;;;5.20;4.70;;;25.10;99.90;;;;;;5010977;28;20654;-81
2022/08/02 09:33:09;;;;;;;6.50;4.90;;;25.20;99.90;;;;;;5010694;28;20693;-80
2022/08/02 09:35:38;;;;;;;5.07;4.67;;;25.30;99.90;;;;;;5021145;28;20727;-83
2022/08/02 09:38:10;;;;;;;5.53;5.13;;;25.40;99.90;;;;;;5012258;28;20646;-82
2022/08/02 09:40:38;;;;;;;5.50;5.00;;;25.50;99.90;;;;;;5023486;28;20774;-81
2022/08/02 09:43:05;;;;;;;5.23;4.73;;;25.50;99.90;;;;;;5015038;28;21052;-81
2022/08/02 09:45:33;;;;;;;5.37;4.70;;;25.60;99.90;;;;;;5016524;28;21005;-82
2022/08/02 09:48:01;;;;;;;6.27;5.13;;;25.70;99.90;;;;;;5017814;28;20682;-82
2022/08/02 09:50:28;;;;;;;7.73;4.67;;;25.70;99.90;;;;;;5014263;28;21468;-82
2022/08/02 09:52:56;;;;;;;7.77;5.87;;;25.80;99.90;;;;;;5013932;28;20844;-82
2022/08/02 09:55:25;;;;;;;11.07;5.43;;;25.90;99.90;;;;;;5023211;28;20638;-82
2022/08/02 09:57:52;;;;;;;5.30;4.87;;;26.00;99.90;;;;;;5014945;28;20635;-82
2022/08/02 10:00:20;;;;;;;5.67;5.17;;;26.10;99.80;;;;;;5015535;28;20683;-82
2022/08/02 10:03:08;;;;;;;6.43;4.20;;;26.10;99.90;;;;;;5013839;28;21142;-81
2022/08/02 10:05:50;;;;;;;5.17;4.77;;;26.20;99.90;;;;;;5019732;28;21001;-81
2022/08/02 10:08:17;;;;;;;5.13;4.73;;;26.40;99.90;;;;;;5015873;28;20628;-81
2022/08/02 10:10:45;;;;;;;5.70;5.00;;;26.50;99.90;;;;;;5015130;28;20631;-81
2022/08/02 10:13:12;;;;;;;5.90;5.40;;;26.70;99.90;;;;;;5017092;28;20631;-81
2022/08/02 10:15:40;;;;;;;5.10;4.70;;;26.90;99.90;;;;;;5014852;28;20658;-81
2022/08/02 10:18:08;;;;;;;4.87;4.57;;;27.00;99.80;;;;;;5016477;28;20635;-82
2022/08/02 10:20:43;;;;;;;5.40;4.90;;;27.00;99.60;;;;;;5013089;28;20679;-81
2022/08/02 10:23:13;;;;;;;5.70;5.27;;;27.00;99.10;;;;;;5014533;28;20693;-82
2022/08/02 10:25:42;;;;;;;5.40;4.90;;;26.90;98.90;;;;;;5015224;28;21012;-81
2022/08/02 10:28:11;;;;;;;5.33;4.93;;;26.80;98.70;;;;;;5017027;28;20685;-82
2022/08/02 10:30:42;;;;;;;4.93;4.53;;;26.90;99.30;;;;;;5014754;28;20997;-82
2022/08/02 10:33:10;;;;;;;5.97;4.50;;;27.20;99.90;;;;;;5013420;28;20639;-82
2022/08/02 10:35:40;;;;;;;4.53;4.20;;;27.50;98.70;;;;;;5013694;28;20647;-82
2022/08/02 10:38:10;;;;;;;4.80;4.40;;;27.90;98.00;;;;;;5011661;28;20632;-82
2022/08/02 10:40:48;;;;;;;4.30;3.90;;;28.30;96.80;;;;;;5019861;28;20683;-82
2022/08/02 10:43:42;;;;;;;4.90;4.60;;;28.50;96.30;;;;;;5016298;28;20947;-82
2022/08/02 10:46:29;;;;;;;4.47;4.17;;;28.80;95.30;;;;;;5013211;28;20694;-82
2022/08/02 10:49:08;;;;;;;4.67;4.27;;;29.10;95.50;;;;;;5016761;28;20723;-82
2022/08/02 10:52:06;;;;;;;4.40;4.10;;;29.30;95.00;;;;;;5011575;28;20619;-82
2022/08/02 10:54:35;;;;;;;5.53;4.90;;;29.60;93.90;;;;;;5016782;28;20726;-82
2022/08/02 10:57:03;;;;;;;4.87;4.30;;;29.70;94.20;;;;;;5023755;28;20639;-82
2022/08/02 10:59:34;;;;;;;4.13;3.83;;;29.80;93.20;;;;;;5031859;28;20662;-82
2022/08/02 11:02:04;;;;;;;6.77;6.27;;;29.80;93.30;;;;;;5024447;28;20618;-82
2022/08/02 11:04:33;;;;;;;6.63;6.10;;;29.90;93.20;;;;;;5012441;28;20630;-82
2022/08/02 11:07:30;;;;;;;5.67;5.30;;;30.10;93.00;;;;;;5013231;28;20623;-80
2022/08/02 11:10:19;;;;;;;7.43;6.80;;;30.40;92.30;;;;;;5013265;28;20663;-83
2022/08/02 11:13:00;;;;;;;5.97;5.47;;;30.70;91.70;;;;;;5013100;28;21080;-82
2022/08/02 11:15:29;;;;;;;6.70;6.20;;;30.70;90.90;;;;;;5014628;28;20623;-82
2022/08/02 11:17:58;;;;;;;8.73;7.17;;;30.90;90.80;;;;;;5012563;28;20639;-83
2022/08/02 11:20:26;;;;;;;6.90;6.40;;;30.80;91.00;;;;;;5013327;28;21037;-82
2022/08/02 11:22:53;;;;;;;5.90;5.47;;;30.80;90.40;;;;;;5011298;28;21381;-83
2022/08/02 11:25:41;;;;;;;4.40;4.00;;;30.70;89.90;;;;;;5019228;28;20642;-81
2022/08/02 11:28:11;;;;;;;4.00;3.70;;;30.90;88.70;;;;;;5011155;28;21013;-81
2022/08/02 11:30:39;;;;;;;4.23;3.93;;;30.80;89.30;;;;;;5012198;28;20663;-81
2022/08/02 11:33:06;;;;;;;4.20;3.90;;;30.90;88.90;;;;;;5011819;28;20662;-81
2022/08/02 11:35:35;;;;;;;3.50;3.20;;;30.80;87.10;;;;;;5010796;28;20650;-81
2022/08/02 11:38:19;;;;;;;3.60;3.40;;;30.70;87.00;;;;;;5011627;28;20635;-81
2022/08/02 11:40:48;;;;;;;4.17;3.87;;;30.50;87.50;;;;;;5013051;28;20659;-81
2022/08/02 11:43:19;;;;;;;3.80;3.60;;;30.40;87.00;;;;;;5016785;28;20658;-81
2022/08/02 11:45:49;;;;;;;4.00;3.70;;;30.30;87.40;;;;;;5011521;28;20639;-81
2022/08/02 11:48:30;;;;;;;4.30;3.23;;;30.20;89.70;;;;;;5018046;28;20640;-81
2022/08/02 11:51:08;;;;;;;3.33;2.97;;;30.10;90.00;;;;;;5011360;28;20631;-81
2022/08/02 11:53:42;;;;;;;3.93;3.50;;;30.10;89.60;;;;;;5011226;28;20639;-81
2022/08/02 11:56:09;;;;;;;5.30;3.57;;;29.90;89.50;;;;;;5020761;28;21277;-81
2022/08/02 11:58:36;;;;;;;4.07;3.37;;;29.90;90.10;;;;;;5017495;28;20631;-80
2022/08/02 12:01:07;;;;;;;4.10;3.70;;;29.80;87.80;;;;;;5008923;28;20656;-81
2022/08/02 12:03:36;;;;;;;3.43;3.20;;;29.70;87.80;;;;;;5010130;28;20607;-81
2022/08/02 12:06:04;;;;;;;4.87;4.50;;;29.70;88.00;;;;;;5018534;28;20635;-81
2022/08/02 12:08:31;;;;;;;3.17;2.97;;;29.80;87.50;;;;;;5019105;28;20627;-81
2022/08/02 12:11:01;;;;;;;3.73;3.53;;;29.80;86.70;;;;;;5011599;28;20635;-81
2022/08/02 12:13:28;;;;;;;3.67;3.47;;;29.90;88.60;;;;;;5012702;28;21027;-81
2022/08/02 12:19:17;;;;;;;3.27;3.07;;;30.00;89.00;;;;;;5013281;28;20988;-82
2022/08/02 12:21:33;;;;;;;4.57;2.97;;;30.80;83.40;;;;;;5010448;28;20666;-81
2022/08/02 12:23:59;;;;;;;4.27;3.10;;;31.30;82.60;;;;;;5011517;28;20986;-82
2022/08/02 12:26:26;;;;;;;4.77;4.57;;;32.00;83.00;;;;;;5012295;28;20628;-82
2022/08/02 12:28:57;;;;;;;4.60;3.20;;;32.60;80.40;;;;;;5010947;28;21163;-81
2022/08/02 12:31:40;;;;;;;3.17;2.80;;;33.00;79.20;;;;;;5022217;28;20626;-81
2022/08/02 12:34:16;;;;;;;3.17;2.80;;;33.50;79.40;;;;;;5028292;28;20635;-82
2022/08/02 12:36:43;;;;;;;2.90;2.70;;;33.90;78.10;;;;;;5014126;28;20623;-82
2022/08/02 12:39:13;;;;;;;3.10;2.90;;;34.20;74.40;;;;;;5012936;28;20659;-82
2022/08/02 12:41:41;;;;;;;3.50;3.30;;;34.30;72.50;;;;;;5012203;28;20630;-82
2022/08/02 12:44:15;;;;;;;2.80;2.50;;;34.50;74.50;;;;;;5016590;28;20728;-80
2022/08/02 12:46:42;;;;;;;4.37;2.60;;;34.90;72.20;;;;;;5020344;28;20641;-82
2022/08/02 12:49:18;;;;;;;3.40;2.57;;;34.90;71.20;;;;;;5014911;28;20741;-82
2022/08/02 12:51:47;;;;;;;3.20;3.00;;;34.70;70.50;;;;;;5011527;28;21087;-82
2022/08/02 12:54:16;;;;;;;3.33;3.00;;;34.20;71.90;;;;;;5018770;28;20627;-82
2022/08/02 12:56:43;;;;;;;2.90;2.70;;;33.90;73.00;;;;;;5012306;28;20634;-82
2022/08/02 12:59:10;;;;;;;3.03;2.83;;;33.60;71.90;;;;;;5025205;28;20653;-82
2022/08/02 13:01:37;;;;;;;4.20;3.90;;;33.90;72.60;;;;;;5018991;28;20638;-82
2022/08/02 13:04:05;;;;;;;3.13;2.90;;;34.30;70.00;;;;;;5014088;28;20631;-82
2022/08/02 13:06:33;;;;;;;2.90;2.53;;;34.70;69.00;;;;;;5011187;28;21205;-82
2022/08/02 13:09:01;;;;;;;4.83;3.20;;;35.20;67.20;;;;;;5010949;28;20659;-82
2022/08/02 13:11:28;;;;;;;3.00;2.80;;;35.30;64.40;;;;;;5013244;28;20674;-82
2022/08/02 13:13:55;;;;;;;4.40;3.10;;;35.60;63.70;;;;;;5014894;28;20646;-82
2022/08/02 13:16:24;;;;;;;4.40;3.30;;;35.70;62.80;;;;;;5014815;28;20640;-83
2022/08/02 13:18:51;;;;;;;3.03;2.70;;;36.00;62.20;;;;;;5013715;28;20239;-82
2022/08/02 13:21:18;;;;;;;4.00;2.90;;;36.40;62.30;;;;;;5011890;28;20203;-83
2022/08/02 13:23:46;;;;;;;2.67;2.47;;;36.90;61.00;;;;;;5014612;28;20672;-82
2022/08/02 13:26:13;;;;;;;3.00;2.80;;;37.30;60.90;;;;;;5014221;28;20569;-83
2022/08/02 13:28:41;;;;;;;2.92;2.72;;;37.70;58.10;;;;;;5013918;28;20232;-83
2022/08/02 13:31:09;;;;;;;2.78;2.53;;;37.70;56.10;;;;;;5013293;28;20224;-83
2022/08/02 13:33:35;;;;;;;2.63;2.42;;;38.00;56.70;;;;;;5018381;28;20196;-82
2022/08/02 13:36:02;;;;;;;2.25;2.15;;;38.20;53.90;;;;;;5010535;28;20255;-82
2022/08/02 13:38:29;;;;;;;3.03;2.70;;;38.10;51.80;;;;;;5013054;28;20195;-82
2022/08/02 13:41:09;;;;;;;3.35;3.15;;;38.00;50.70;;;;;;5011331;28;20279;-82
2022/08/02 13:43:36;;;;;;;3.17;2.63;;;37.90;50.60;;;;;;5010869;28;20212;-82
2022/08/02 13:46:05;;;;;;;2.67;2.47;;;37.90;50.90;;;;;;5011542;28;20218;-82
2022/08/02 13:48:31;;;;;;;4.70;2.50;;;37.80;50.90;;;;;;5017292;28;20231;-82
2022/08/02 13:50:59;;;;;;;3.10;2.90;;;37.70;51.00;;;;;;5008033;28;20228;-81
2022/08/02 13:53:25;;;;;;;2.83;2.63;;;37.90;50.40;;;;;;5012952;28;20215;-81
2022/08/02 13:55:52;;;;;;;2.55;2.45;;;38.20;50.10;;;;;;5016330;28;20665;-81
2022/08/02 13:58:21;;;;;;;3.30;3.10;;;38.10;49.10;;;;;;5012358;28;20208;-81
2022/08/02 14:00:47;;;;;;;3.15;2.60;;;38.20;49.60;;;;;;5011883;28;20585;-81
2022/08/02 14:03:14;;;;;;;3.38;2.60;;;38.10;49.40;;;;;;5012655;28;20219;-81
2022/08/02 14:05:42;;;;;;;3.60;3.30;;;38.20;49.70;;;;;;5012923;28;20203;-81
2022/08/02 14:08:09;;;;;;;3.58;2.70;;;38.50;48.80;;;;;;5013115;28;20235;-81
2022/08/02 14:10:36;;;;;;;3.20;3.00;;;37.90;49.90;;;;;;5020408;28;20723;-81
2022/08/02 14:13:03;;;;;;;3.28;3.08;;;38.30;50.10;;;;;;5012394;28;20213;-81
2022/08/02 14:15:31;;;;;;;3.50;3.28;;;38.50;50.00;;;;;;5020592;28;20197;-80
2022/08/02 14:17:58;;;;;;;3.20;2.67;;;38.90;49.20;;;;;;5022433;28;20215;-81
2022/08/02 14:20:25;;;;;;;2.85;2.38;;;39.30;48.40;;;;;;5019812;28;20222;-81
2022/08/02 14:22:52;;;;;;;3.20;2.90;;;39.60;47.80;;;;;;5020428;28;20203;-81
2022/08/02 14:25:19;;;;;;;2.40;2.30;;;39.80;48.60;;;;;;5020884;28;20549;-81
2022/08/02 14:27:46;;;;;;;2.50;2.30;;;39.80;46.70;;;;;;5020587;28;20212;-81
2022/08/02 14:30:13;;;;;;;5.15;2.97;;;39.70;46.70;;;;;;5019900;28;20246;-81